createdAt,value
2023-02-11T00:00:04.900Z,23.60
2023-02-11T00:04:06.559Z,24.10
2023-02-11T00:07:31.176Z,24.90
2023-02-11T00:11:06.385Z,23.20
2023-02-11T00:15:04.583Z,23.60
2023-02-11T00:18:46.341Z,24.20
2023-02-11T00:22:08.250Z,23.70
2023-02-11T00:26:14.626Z,23.80
2023-02-11T00:29:38.599Z,21.10
2023-02-11T00:33:36.763Z,25.40
2023-02-11T00:37:24.341Z,27.30
2023-02-11T00:41:05.366Z,27.30
2023-02-11T00:44:27.929Z,23.70
2023-02-11T00:48:24.162Z,24.90
2023-02-11T00:52:05.932Z,23.50
2023-02-11T00:55:29.970Z,20.50
2023-02-11T00:59:30.266Z,26.10
2023-02-11T01:03:11.576Z,26.30
2023-02-11T01:06:53.043Z,28.40
2023-02-11T01:10:33.851Z,25.90
2023-02-11T01:13:58.188Z,25.80
2023-02-11T01:17:54.687Z,26.20
2023-02-11T01:21:16.692Z,25.90
2023-02-11T01:24:57.650Z,26.10
2023-02-11T01:28:52.384Z,25.10
2023-02-11T01:32:16.418Z,19.70
2023-02-11T01:36:13.042Z,22.50
2023-02-11T01:39:36.371Z,24.00
2023-02-11T01:43:36.686Z,23.70
2023-02-11T01:47:18.638Z,23.30
2023-02-11T01:51:26.186Z,24.80
2023-02-11T01:55:32.584Z,23.80
2023-02-11T01:59:23.788Z,23.40
2023-02-11T02:03:21.812Z,28.10
2023-02-11T02:07:18.172Z,27.40
2023-02-11T02:10:46.459Z,21.90
2023-02-11T02:14:19.035Z,26.40
2023-02-11T02:18:36.190Z,22.90
2023-02-11T02:22:36.019Z,22.30
2023-02-11T02:26:18.860Z,19.20
2023-02-11T02:30:05.234Z,17.60
2023-02-11T02:33:49.289Z,20.50
2023-02-11T02:37:38.978Z,21.90
2023-02-11T02:41:09.576Z,24.40
2023-02-11T02:44:58.422Z,20.80
2023-02-11T02:48:32.504Z,22.90
2023-02-11T02:52:03.536Z,19.00
2023-02-11T02:56:12.901Z,19.10
2023-02-11T02:59:42.468Z,19.00
2023-02-11T03:03:32.245Z,16.40
2023-02-11T03:07:06.498Z,17.10
2023-02-11T03:10:54.595Z,17.80
2023-02-11T03:14:20.037Z,22.20
2023-02-11T03:18:19.403Z,22.20
2023-02-11T03:21:44.144Z,19.30
2023-02-11T03:25:20.957Z,19.40
2023-02-11T03:29:16.812Z,19.10
2023-02-11T03:32:49.132Z,19.00
2023-02-11T03:36:45.283Z,19.90
2023-02-11T03:40:15.139Z,20.40
2023-02-11T03:44:05.513Z,17.60
2023-02-11T03:47:56.430Z,19.00
2023-02-11T03:51:22.514Z,17.50
2023-02-11T03:54:58.346Z,15.50
2023-02-11T03:58:33.719Z,17.20
2023-02-11T04:02:11.259Z,16.10
2023-02-11T04:06:08.160Z,17.70
2023-02-11T04:09:49.535Z,17.30
2023-02-11T04:13:11.790Z,17.60
2023-02-11T04:17:08.479Z,17.50
2023-02-11T04:20:50.361Z,18.20
2023-02-11T04:24:31.429Z,16.80
2023-02-11T04:28:12.659Z,17.70
2023-02-11T04:31:54.637Z,18.20
2023-02-11T04:35:17.661Z,16.10
2023-02-11T04:38:56.226Z,20.20
2023-02-11T04:42:52.055Z,19.10
2023-02-11T04:46:33.189Z,19.20
2023-02-11T04:49:55.722Z,19.00
2023-02-11T04:53:52.198Z,21.30
2023-02-11T04:57:14.360Z,17.70
2023-02-11T05:01:13.817Z,40.40
2023-02-11T05:04:36.242Z,24.60
2023-02-11T05:08:33.071Z,18.90
2023-02-11T05:11:55.135Z,19.60
2023-02-11T05:15:32.719Z,16.30
2023-02-11T05:19:10.424Z,18.60
2023-02-11T05:22:48.156Z,19.40
2023-02-11T05:26:25.792Z,17.80
2023-02-11T05:30:05.112Z,22.90
2023-02-11T05:33:43.201Z,17.40
2023-02-11T05:37:18.727Z,20.10
2023-02-11T05:41:16.014Z,16.90
2023-02-11T05:44:38.310Z,17.30
2023-02-11T05:48:16.312Z,17.30
2023-02-11T05:51:53.692Z,17.90
2023-02-11T05:55:31.861Z,15.40
2023-02-11T05:59:09.025Z,16.70
2023-02-11T06:02:46.815Z,18.00
2023-02-11T06:06:25.164Z,17.50
2023-02-11T06:10:02.009Z,17.10
2023-02-11T06:13:39.577Z,20.30
2023-02-11T06:17:17.422Z,22.70
2023-02-11T06:20:55.200Z,24.00
2023-02-11T06:25:01.392Z,22.90
2023-02-11T06:28:45.594Z,18.40
2023-02-11T06:32:13.801Z,17.20
2023-02-11T06:35:46.224Z,16.40
2023-02-11T06:39:45.607Z,18.00
2023-02-11T06:43:26.758Z,18.30
2023-02-11T06:47:07.706Z,18.60
2023-02-11T06:50:28.376Z,22.10
2023-02-11T06:54:09.458Z,27.80
2023-02-11T06:57:46.473Z,21.80
2023-02-11T07:01:25.134Z,19.60
2023-02-11T07:05:19.662Z,23.10
2023-02-11T07:08:45.937Z,20.20
2023-02-11T07:12:20.244Z,17.10
2023-02-11T07:15:58.073Z,17.90
2023-02-11T07:19:55.838Z,36.40
2023-02-11T07:23:38.828Z,22.40
2023-02-11T07:27:23.103Z,28.40
2023-02-11T07:30:50.502Z,18.10
2023-02-11T07:34:24.032Z,19.40
2023-02-11T07:38:22.075Z,16.80
2023-02-11T07:42:05.920Z,16.00
2023-02-11T07:45:29.231Z,20.90
2023-02-11T07:49:25.722Z,19.40
2023-02-11T07:52:47.803Z,20.70
2023-02-11T07:56:44.259Z,19.80
2023-02-11T08:00:14.854Z,17.30
2023-02-11T08:04:10.160Z,15.50
2023-02-11T08:07:34.226Z,16.00
2023-02-11T08:11:30.985Z,18.20
2023-02-11T08:15:12.337Z,19.80
2023-02-11T08:18:35.916Z,18.50
2023-02-11T08:22:12.544Z,16.60
2023-02-11T08:26:22.895Z,16.60
2023-02-11T08:30:05.995Z,15.80
2023-02-11T08:33:31.071Z,14.50
2023-02-11T08:37:09.056Z,12.50
2023-02-11T08:41:05.270Z,15.30
2023-02-11T08:44:29.762Z,15.60
2023-02-11T08:48:06.737Z,15.20
2023-02-11T08:52:04.699Z,16.70
2023-02-11T08:55:29.486Z,17.50
2023-02-11T08:59:06.366Z,17.70
2023-02-11T09:02:43.115Z,14.50
2023-02-11T09:06:22.548Z,15.40
2023-02-11T09:09:58.404Z,16.60
2023-02-11T09:13:56.456Z,16.00
2023-02-11T09:17:22.418Z,18.00
2023-02-11T09:21:07.759Z,16.90
2023-02-11T09:24:52.592Z,17.30
2023-02-11T09:28:33.852Z,13.70
2023-02-11T09:31:56.211Z,12.80
2023-02-11T09:35:34.659Z,14.20
2023-02-11T09:39:19.911Z,14.60
2023-02-11T09:43:07.058Z,14.70
2023-02-11T09:46:34.927Z,13.60
2023-02-11T09:50:14.020Z,13.40
2023-02-11T09:54:16.319Z,12.80
2023-02-11T09:57:38.943Z,12.00
2023-02-11T10:01:45.450Z,15.00
2023-02-11T10:05:56.041Z,14.00
2023-02-11T10:10:02.905Z,12.50
2023-02-11T10:13:59.007Z,12.80
2023-02-11T10:17:52.590Z,14.10
2023-02-11T10:21:33.681Z,12.00
2023-02-11T10:25:00.270Z,11.10
2023-02-11T10:29:01.476Z,12.60
2023-02-11T10:32:48.506Z,12.20
2023-02-11T10:36:16.274Z,13.20
2023-02-11T10:40:14.337Z,14.90
2023-02-11T10:43:37.011Z,12.40
2023-02-11T10:47:21.270Z,15.70
2023-02-11T10:51:14.543Z,14.50
2023-02-11T10:54:37.963Z,13.10
2023-02-11T10:58:25.597Z,14.50
2023-02-11T11:01:59.154Z,14.30
2023-02-11T11:05:49.154Z,14.00
2023-02-11T11:09:29.605Z,12.20
2023-02-11T11:13:28.012Z,12.40
2023-02-11T11:17:19.720Z,13.20
2023-02-11T11:21:02.955Z,11.90
2023-02-11T11:24:35.284Z,12.10
2023-02-11T11:28:28.007Z,13.20
2023-02-11T11:31:56.989Z,12.50
2023-02-11T11:36:07.518Z,10.80
2023-02-11T11:39:33.694Z,11.70
2023-02-11T11:43:23.047Z,10.50
2023-02-11T11:46:49.733Z,14.20
2023-02-11T11:50:47.919Z,14.10
2023-02-11T11:54:32.758Z,13.90
2023-02-11T11:57:55.292Z,15.00
2023-02-11T12:02:29.159Z,12.60
2023-02-11T12:06:29.306Z,14.50
2023-02-11T12:10:26.206Z,14.10
2023-02-11T12:14:03.146Z,14.00
2023-02-11T12:18:02.745Z,14.70
2023-02-11T12:21:53.880Z,17.00
2023-02-11T12:25:35.877Z,20.30
2023-02-11T12:29:26.836Z,11.80
2023-02-11T12:33:26.075Z,14.60
2023-02-11T12:37:07.533Z,15.70
2023-02-11T12:41:04.705Z,15.30
2023-02-11T12:45:09.096Z,16.30
2023-02-11T12:49:02.376Z,17.80
2023-02-11T12:53:02.316Z,15.60
2023-02-11T12:57:08.103Z,10.90
2023-02-11T13:00:42.644Z,15.80
2023-02-11T13:04:19.865Z,15.70
2023-02-11T13:08:25.569Z,18.80
2023-02-11T13:11:53.642Z,15.90
2023-02-11T13:15:33.157Z,15.90
2023-02-11T13:19:33.664Z,17.50
2023-02-11T13:23:18.217Z,15.40
2023-02-11T13:27:50.412Z,14.90
2023-02-11T13:31:35.816Z,19.00
2023-02-11T13:34:58.850Z,15.70
2023-02-11T13:38:37.676Z,17.60
2023-02-11T13:42:18.034Z,13.60
2023-02-11T13:46:15.296Z,18.00
2023-02-11T13:49:57.946Z,18.70
2023-02-11T13:53:20.465Z,17.00
2023-02-11T13:57:21.758Z,17.60
2023-02-11T14:01:07.173Z,19.30
2023-02-11T14:04:49.125Z,15.90
2023-02-11T14:08:31.350Z,17.40
2023-02-11T14:12:21.593Z,20.80
2023-02-11T14:16:28.145Z,15.30
2023-02-11T14:20:36.476Z,18.80
2023-02-11T14:24:17.660Z,19.70
2023-02-11T14:28:04.144Z,19.10
2023-02-11T14:32:22.965Z,18.90
2023-02-11T14:35:57.038Z,18.70
2023-02-11T14:39:53.665Z,18.20
2023-02-11T14:43:22.642Z,16.40
2023-02-11T14:47:19.421Z,19.60
2023-02-11T14:50:46.623Z,20.10
2023-02-11T14:54:39.712Z,19.30
2023-02-11T14:58:25.159Z,16.90
2023-02-11T15:02:22.461Z,19.20
2023-02-11T15:06:27.785Z,16.60
2023-02-11T15:09:52.766Z,18.80
2023-02-11T15:13:32.915Z,18.00
2023-02-11T15:17:26.978Z,20.40
2023-02-11T15:21:09.183Z,17.70
2023-02-11T15:24:35.470Z,16.90
2023-02-11T15:28:31.973Z,17.50
2023-02-11T15:32:22.585Z,20.90
2023-02-11T15:35:46.543Z,18.00
2023-02-11T15:39:41.525Z,15.80
2023-02-11T15:43:22.890Z,21.20
2023-02-11T15:47:09.866Z,20.70
2023-02-11T15:50:37.122Z,19.90
2023-02-11T15:54:31.990Z,18.10
2023-02-11T15:58:01.418Z,17.80
2023-02-11T16:01:52.710Z,17.20
2023-02-11T16:05:35.498Z,19.20
2023-02-11T16:09:03.741Z,14.40
2023-02-11T16:12:39.062Z,14.00
2023-02-11T16:16:34.634Z,16.90
2023-02-11T16:20:19.952Z,16.70
2023-02-11T16:24:01.584Z,16.30
2023-02-11T16:27:35.505Z,16.40
2023-02-11T16:31:21.002Z,18.60
2023-02-11T16:35:10.434Z,18.80
2023-02-11T16:38:34.514Z,17.40
2023-02-11T16:42:14.312Z,15.50
2023-02-11T16:46:08.800Z,17.00
2023-02-11T16:49:32.529Z,16.40
2023-02-11T16:53:10.308Z,14.80
2023-02-11T16:56:46.323Z,17.60
2023-02-11T17:00:28.627Z,19.00
2023-02-11T17:04:27.697Z,18.00
2023-02-11T17:08:10.610Z,17.20
2023-02-11T17:11:33.121Z,14.50
2023-02-11T17:15:11.102Z,14.50
2023-02-11T17:19:11.571Z,13.30
2023-02-11T17:22:34.122Z,14.70
2023-02-11T17:26:30.723Z,16.50
2023-02-11T17:29:55.829Z,17.40
2023-02-11T17:33:30.437Z,11.10
2023-02-11T17:37:10.083Z,15.50
2023-02-11T17:40:45.829Z,17.60
2023-02-11T17:44:44.019Z,14.70
2023-02-11T17:48:26.304Z,19.40
2023-02-11T17:51:49.835Z,19.40
2023-02-11T17:55:47.492Z,17.10
2023-02-11T17:59:34.666Z,16.70
2023-02-11T18:02:57.876Z,13.80
2023-02-11T18:06:36.181Z,13.10
2023-02-11T18:10:32.852Z,14.20
2023-02-11T18:13:54.928Z,14.70
2023-02-11T18:17:54.669Z,13.50
2023-02-11T18:21:35.640Z,11.50
2023-02-11T18:25:17.996Z,13.10
2023-02-11T18:28:59.995Z,18.80
2023-02-11T18:32:41.237Z,10.40
2023-02-11T18:36:23.103Z,11.20
2023-02-11T18:39:46.654Z,9.40
2023-02-11T18:43:43.580Z,13.60
2023-02-11T18:47:24.851Z,9.80
2023-02-11T18:51:11.185Z,11.10
2023-02-11T18:54:52.760Z,10.70
2023-02-11T18:58:15.561Z,13.20
2023-02-11T19:01:52.801Z,10.50
2023-02-11T19:05:33.523Z,10.70
2023-02-11T19:09:27.529Z,9.00
2023-02-11T19:12:51.049Z,13.40
2023-02-11T19:16:52.300Z,10.10
2023-02-11T19:20:33.492Z,9.50
2023-02-11T19:23:56.221Z,10.60
2023-02-11T19:27:54.420Z,13.20
2023-02-11T19:31:16.818Z,9.50
2023-02-11T19:35:13.448Z,9.50
2023-02-11T19:38:54.724Z,10.80
2023-02-11T19:42:36.442Z,7.30
2023-02-11T19:46:20.394Z,10.60
2023-02-11T19:50:05.355Z,9.50
2023-02-11T19:53:29.752Z,7.30
2023-02-11T19:57:09.974Z,8.60
2023-02-11T20:00:46.351Z,8.40
2023-02-11T20:04:25.717Z,8.90
2023-02-11T20:08:01.658Z,9.60
2023-02-11T20:11:59.286Z,11.00
2023-02-11T20:15:42.043Z,11.40
2023-02-11T20:19:23.701Z,9.00
2023-02-11T20:22:48.822Z,10.80
2023-02-11T20:26:44.707Z,14.60
2023-02-11T20:30:25.544Z,12.40
2023-02-11T20:33:48.694Z,10.40
2023-02-11T20:37:25.309Z,9.00
2023-02-11T20:41:04.854Z,7.90
2023-02-11T20:44:41.516Z,7.90
2023-02-11T20:48:18.523Z,8.10
2023-02-11T20:52:15.103Z,9.50
2023-02-11T20:55:56.478Z,9.40
2023-02-11T20:59:37.750Z,6.70
2023-02-11T21:03:00.297Z,7.90
2023-02-11T21:06:41.466Z,8.30
2023-02-11T21:10:15.736Z,9.20
2023-02-11T21:13:53.109Z,9.10
2023-02-11T21:17:32.075Z,9.80
2023-02-11T21:21:09.501Z,8.30
2023-02-11T21:25:05.596Z,9.30
2023-02-11T21:28:51.324Z,6.60
2023-02-11T21:32:17.650Z,8.00
2023-02-11T21:35:56.143Z,7.70
2023-02-11T21:39:29.302Z,9.50
2023-02-11T21:43:06.840Z,11.10
2023-02-11T21:46:44.846Z,8.60
2023-02-11T21:50:22.165Z,9.80
2023-02-11T21:54:19.524Z,9.50
2023-02-11T21:57:41.478Z,10.90
2023-02-11T22:01:25.081Z,8.00
2023-02-11T22:05:15.613Z,9.20
2023-02-11T22:08:57.558Z,6.30
2023-02-11T22:12:19.451Z,8.60
2023-02-11T22:16:18.025Z,8.50
2023-02-11T22:20:00.024Z,8.60
2023-02-11T22:23:41.570Z,8.00
2023-02-11T22:27:06.289Z,8.00
2023-02-11T22:31:00.563Z,6.40
2023-02-11T22:34:31.160Z,4.90
2023-02-11T22:38:00.751Z,6.90
2023-02-11T22:41:40.993Z,5.10
2023-02-11T22:45:15.537Z,5.50
2023-02-11T22:48:53.390Z,5.20
2023-02-11T22:52:49.887Z,5.00
2023-02-11T22:56:32.521Z,6.80
2023-02-11T22:59:55.221Z,6.50
2023-02-11T23:03:33.672Z,4.30
2023-02-11T23:07:10.830Z,6.60
2023-02-11T23:10:47.831Z,5.80
2023-02-11T23:14:45.061Z,8.10
2023-02-11T23:18:29.059Z,5.80
2023-02-11T23:21:53.215Z,5.90
2023-02-11T23:25:31.134Z,7.20
2023-02-11T23:29:07.376Z,5.30
2023-02-11T23:32:44.782Z,6.90
2023-02-11T23:36:41.270Z,6.70
2023-02-11T23:40:22.372Z,7.40
2023-02-11T23:43:49.520Z,6.70
2023-02-11T23:47:22.703Z,8.10
2023-02-11T23:51:00.331Z,7.20
2023-02-11T23:54:37.836Z,7.20
2023-02-11T23:58:37.784Z,8.30
